createdAt,value
2022-10-31T00:01:40.589Z,99294.90
2022-10-31T00:04:46.613Z,99290.89
2022-10-31T00:07:55.906Z,99292.77
2022-10-31T00:11:01.967Z,99296.73
2022-10-31T00:14:08.609Z,99299.40
2022-10-31T00:17:14.722Z,99302.50
2022-10-31T00:20:21.019Z,99305.05
2022-10-31T00:23:25.525Z,99301.77
2022-10-31T00:26:33.162Z,99299.29
2022-10-31T00:29:39.540Z,99300.14
2022-10-31T00:32:44.040Z,99300.30
2022-10-31T00:35:54.938Z,99302.57
2022-10-31T00:39:02.594Z,99303.31
2022-10-31T00:42:08.821Z,99302.69
2022-10-31T00:45:13.747Z,99302.94
2022-10-31T00:48:19.920Z,99300.74
2022-10-31T00:51:26.064Z,99300.70
2022-10-31T00:54:32.645Z,99297.61
2022-10-31T00:57:38.714Z,99300.11
2022-10-31T01:00:46.841Z,99298.72
2022-10-31T01:03:55.778Z,99300.14
2022-10-31T01:07:02.457Z,99298.89
2022-10-31T01:10:10.053Z,99294.02
2022-10-31T01:13:16.110Z,99296.61
2022-10-31T01:16:24.336Z,99297.08
2022-10-31T01:19:30.606Z,99300.11
2022-10-31T01:22:35.549Z,99300.95
2022-10-31T01:25:43.636Z,99298.27
2022-10-31T01:28:51.864Z,99299.27
2022-10-31T01:31:58.100Z,99294.27
2022-10-31T01:35:04.496Z,99293.19
2022-10-31T01:38:10.509Z,99286.79
2022-10-31T01:41:18.379Z,99281.84
2022-10-31T01:44:59.152Z,99280.41
2022-10-31T01:48:05.463Z,99281.27
2022-10-31T01:51:15.492Z,99279.30
2022-10-31T01:54:26.257Z,99278.67
2022-10-31T01:57:34.340Z,99275.24
2022-10-31T02:00:41.166Z,99277.02
2022-10-31T02:03:48.716Z,99278.88
2022-10-31T02:06:58.975Z,99280.61
2022-10-31T02:10:07.163Z,99274.89
2022-10-31T02:13:14.432Z,99276.02
2022-10-31T02:16:20.643Z,99279.55
2022-10-31T02:19:37.024Z,99280.31
2022-10-31T02:22:53.550Z,99277.98
2022-10-31T02:26:32.177Z,99279.63
2022-10-31T02:29:56.874Z,99282.21
2022-10-31T02:33:17.095Z,99290.69
2022-10-31T02:36:30.808Z,99290.02
2022-10-31T02:39:47.034Z,99294.65
2022-10-31T02:43:00.766Z,99296.63
2022-10-31T02:46:16.545Z,99293.23
2022-10-31T02:49:30.097Z,99293.30
2022-10-31T02:52:38.082Z,99296.86
2022-10-31T02:55:58.787Z,99296.23
2022-10-31T02:59:07.113Z,99298.33
2022-10-31T03:02:34.036Z,99303.51
2022-10-31T03:05:56.929Z,99302.33
2022-10-31T03:09:12.189Z,99310.14
2022-10-31T03:12:28.096Z,99309.27
2022-10-31T03:15:37.102Z,99313.16
2022-10-31T03:18:46.550Z,99314.39
2022-10-31T03:21:57.847Z,99317.05
2022-10-31T03:25:06.805Z,99319.54
2022-10-31T03:28:17.061Z,99320.13
2022-10-31T03:31:27.588Z,99321.42
2022-10-31T03:34:34.279Z,99319.65
2022-10-31T03:37:44.129Z,99319.92
2022-10-31T03:40:53.462Z,99320.33
2022-10-31T03:44:04.047Z,99321.90
2022-10-31T03:47:10.502Z,99323.64
2022-10-31T03:50:18.266Z,99326.09
2022-10-31T03:53:33.081Z,99329.70
2022-10-31T03:56:44.046Z,99330.44
2022-10-31T03:59:54.191Z,99331.76
2022-10-31T04:03:06.807Z,99327.89
2022-10-31T04:06:16.874Z,99328.52
2022-10-31T04:09:24.267Z,99328.08
2022-10-31T04:12:31.886Z,99329.20
2022-10-31T04:15:39.551Z,99326.70
2022-10-31T04:18:46.286Z,99324.40
2022-10-31T04:21:52.359Z,99326.63
2022-10-31T04:24:58.440Z,99325.47
2022-10-31T04:28:04.966Z,99320.94
2022-10-31T04:31:13.141Z,99321.48
2022-10-31T04:34:19.359Z,99319.38
2022-10-31T04:37:25.435Z,99319.87
2022-10-31T04:40:31.528Z,99319.28
2022-10-31T04:43:37.730Z,99323.27
2022-10-31T04:46:44.013Z,99326.44
2022-10-31T04:49:48.486Z,99327.09
2022-10-31T04:52:54.653Z,99333.27
2022-10-31T04:56:01.819Z,99330.50
2022-10-31T04:59:08.200Z,99335.52
2022-10-31T05:02:12.869Z,99336.71
2022-10-31T05:05:22.279Z,99331.92
2022-10-31T05:08:28.337Z,99336.04
2022-10-31T05:11:34.465Z,99334.56
2022-10-31T05:14:42.377Z,99338.41
2022-10-31T05:17:52.384Z,99338.90
2022-10-31T05:20:58.540Z,99342.54
2022-10-31T05:24:05.295Z,99345.98
2022-10-31T05:27:11.407Z,99345.70
2022-10-31T05:30:19.896Z,99351.69
2022-10-31T05:33:25.984Z,99352.98
2022-10-31T05:36:32.185Z,99352.33
2022-10-31T05:39:38.206Z,99355.85
2022-10-31T05:42:45.439Z,99361.02
2022-10-31T05:45:56.337Z,99361.54
2022-10-31T05:49:03.000Z,99369.18
2022-10-31T05:52:09.499Z,99367.92
2022-10-31T05:55:14.018Z,99365.09
2022-10-31T05:58:20.120Z,99368.63
2022-10-31T06:01:26.248Z,99369.81
2022-10-31T06:04:32.395Z,99370.77
2022-10-31T06:07:38.842Z,99374.33
2022-10-31T06:10:44.994Z,99376.73
2022-10-31T06:13:51.083Z,99380.49
2022-10-31T06:16:58.168Z,99384.11
2022-10-31T06:20:05.094Z,99384.30
2022-10-31T06:23:11.259Z,99387.61
2022-10-31T06:26:17.547Z,99390.11
2022-10-31T06:29:22.261Z,99395.67
2022-10-31T06:32:28.338Z,99398.27
2022-10-31T06:35:34.517Z,99400.65
2022-10-31T06:38:40.586Z,99400.47
2022-10-31T06:41:49.058Z,99403.61
2022-10-31T06:44:55.171Z,99403.95
2022-10-31T06:48:16.628Z,99405.16
2022-10-31T06:51:23.932Z,99407.63
2022-10-31T06:54:30.321Z,99409.73
2022-10-31T06:57:36.489Z,99415.04
2022-10-31T07:00:42.755Z,99415.67
2022-10-31T07:03:47.342Z,99416.02
2022-10-31T07:06:54.557Z,99414.05
2022-10-31T07:10:00.690Z,99414.33
2022-10-31T07:13:07.899Z,99412.98
2022-10-31T07:16:14.993Z,99415.83
2022-10-31T07:19:21.293Z,99417.77
2022-10-31T07:22:25.835Z,99417.06
2022-10-31T07:25:32.211Z,99421.64
2022-10-31T07:28:36.746Z,99419.49
2022-10-31T07:31:42.917Z,99419.29
2022-10-31T07:34:49.121Z,99420.20
2022-10-31T07:37:55.762Z,99421.55
2022-10-31T07:41:01.936Z,99420.56
2022-10-31T07:44:06.846Z,99419.46
2022-10-31T07:47:13.134Z,99418.70
2022-10-31T07:50:18.646Z,99417.86
2022-10-31T07:53:24.792Z,99417.87
2022-10-31T07:56:30.846Z,99411.40
2022-10-31T07:59:36.862Z,99413.83
2022-10-31T08:02:43.207Z,99410.46
2022-10-31T08:05:48.308Z,99406.66
2022-10-31T08:08:54.517Z,99411.54
2022-10-31T08:12:00.636Z,99413.32
2022-10-31T08:15:07.959Z,99415.20
2022-10-31T08:18:16.566Z,99413.56
2022-10-31T08:21:22.606Z,99415.73
2022-10-31T08:24:28.747Z,99417.91
2022-10-31T08:27:34.817Z,99418.41
2022-10-31T08:30:42.037Z,99416.52
2022-10-31T08:33:48.083Z,99415.77
2022-10-31T08:36:54.135Z,99413.70
2022-10-31T08:40:00.219Z,99411.25
2022-10-31T08:43:08.140Z,99411.91
2022-10-31T08:46:14.538Z,99410.79
2022-10-31T08:49:20.621Z,99410.85
2022-10-31T08:52:51.225Z,99412.38
2022-10-31T08:55:57.066Z,99415.45
2022-10-31T08:59:03.495Z,99414.79
2022-10-31T09:02:11.570Z,99411.42
2022-10-31T09:05:17.972Z,99408.27
2022-10-31T09:08:24.203Z,99409.48
2022-10-31T09:11:28.725Z,99410.68
2022-10-31T09:14:34.845Z,99418.56
2022-10-31T09:17:41.027Z,99413.36
2022-10-31T09:20:46.493Z,99415.27
2022-10-31T09:23:54.998Z,99412.09
2022-10-31T09:27:02.209Z,99411.95
2022-10-31T09:30:09.784Z,99405.02
2022-10-31T09:33:16.897Z,99402.34
2022-10-31T09:36:22.986Z,99403.61
2022-10-31T09:39:29.594Z,99404.80
2022-10-31T09:42:50.831Z,99403.61
2022-10-31T09:46:10.010Z,99403.95
2022-10-31T09:49:36.397Z,99403.55
2022-10-31T09:52:48.321Z,99402.77
2022-10-31T09:55:55.889Z,99394.77
2022-10-31T09:59:04.348Z,99398.50
2022-10-31T10:02:20.199Z,99394.63
2022-10-31T10:05:30.500Z,99396.19
2022-10-31T10:08:38.091Z,99399.20
2022-10-31T10:12:04.034Z,99400.45
2022-10-31T10:15:32.514Z,99403.80
2022-10-31T10:18:47.070Z,99403.45
2022-10-31T10:22:02.548Z,99403.77
2022-10-31T10:25:22.457Z,99399.70
2022-10-31T10:28:39.270Z,99400.86
2022-10-31T10:31:48.230Z,99401.89
2022-10-31T10:34:57.313Z,99402.48
2022-10-31T10:38:13.009Z,99395.46
2022-10-31T10:41:21.542Z,99395.55
2022-10-31T10:44:45.496Z,99398.31
2022-10-31T10:47:59.206Z,99395.40
2022-10-31T10:51:20.278Z,99395.38
2022-10-31T10:54:59.775Z,99391.52
2022-10-31T10:58:09.078Z,99393.17
2022-10-31T11:01:17.294Z,99393.44
2022-10-31T11:04:34.017Z,99390.61
2022-10-31T11:07:43.715Z,99387.96
2022-10-31T11:10:58.075Z,99384.46
2022-10-31T11:14:07.602Z,99383.77
2022-10-31T11:17:20.124Z,99380.55
2022-10-31T11:20:35.748Z,99376.63
2022-10-31T11:23:40.353Z,99372.73
2022-10-31T11:26:48.642Z,99373.98
2022-10-31T11:29:59.777Z,99376.46
2022-10-31T11:33:08.033Z,99371.80
2022-10-31T11:36:23.722Z,99371.42
2022-10-31T11:39:28.558Z,99373.80
2022-10-31T11:42:41.387Z,99372.41
2022-10-31T11:45:47.640Z,99373.00
2022-10-31T11:48:56.312Z,99372.07
2022-10-31T11:52:06.828Z,99373.39
2022-10-31T11:55:33.601Z,99370.52
2022-10-31T11:58:39.810Z,99364.88
2022-10-31T12:01:51.657Z,99364.75
2022-10-31T12:05:09.217Z,99361.85
2022-10-31T12:08:16.254Z,99357.10
2022-10-31T12:11:40.258Z,99353.92
2022-10-31T12:14:55.827Z,99353.35
2022-10-31T12:18:28.610Z,99348.23
2022-10-31T12:21:50.871Z,99346.14
2022-10-31T12:25:19.239Z,99350.67
2022-10-31T12:28:51.027Z,99349.16
2022-10-31T12:32:17.875Z,99351.11
2022-10-31T12:35:46.956Z,99350.14
2022-10-31T12:39:14.309Z,99348.71
2022-10-31T12:42:32.763Z,99347.09
2022-10-31T12:45:54.386Z,99347.65
2022-10-31T12:49:22.669Z,99346.81
2022-10-31T12:52:43.082Z,99344.03
2022-10-31T12:56:01.969Z,99343.56
2022-10-31T12:59:15.167Z,99340.45
2022-10-31T13:02:26.464Z,99339.85
2022-10-31T13:05:36.429Z,99337.91
2022-10-31T13:08:48.215Z,99335.08
2022-10-31T13:11:59.162Z,99328.91
2022-10-31T13:15:14.959Z,99328.66
2022-10-31T13:18:41.003Z,99330.77
2022-10-31T13:21:56.486Z,99327.04
2022-10-31T13:25:12.225Z,99329.87
2022-10-31T13:28:31.445Z,99328.30
2022-10-31T13:31:41.893Z,99323.36
2022-10-31T13:34:55.047Z,99323.69
2022-10-31T13:38:11.669Z,99323.24
2022-10-31T13:41:32.459Z,99324.98
2022-10-31T13:44:39.681Z,99327.00
2022-10-31T13:47:57.014Z,99327.69
2022-10-31T13:51:04.895Z,99324.70
2022-10-31T13:54:25.787Z,99321.50
2022-10-31T13:57:37.340Z,99321.70
2022-10-31T14:00:43.887Z,99320.80
2022-10-31T14:04:11.094Z,99319.89
2022-10-31T14:07:23.850Z,99317.75
2022-10-31T14:10:33.387Z,99314.05
2022-10-31T14:13:44.117Z,99314.02
2022-10-31T14:16:55.902Z,99312.73
2022-10-31T14:20:05.585Z,99305.45
2022-10-31T14:23:37.424Z,99310.30
2022-10-31T14:26:53.641Z,99314.55
2022-10-31T14:30:15.997Z,99309.00
2022-10-31T14:33:24.588Z,99308.21
2022-10-31T14:36:41.685Z,99305.29
2022-10-31T14:40:00.539Z,99301.92
2022-10-31T14:43:45.647Z,99306.09
2022-10-31T14:46:59.315Z,99305.63
2022-10-31T14:50:22.664Z,99306.11
2022-10-31T14:53:31.689Z,99308.55
2022-10-31T14:56:43.582Z,99306.67
2022-10-31T14:59:55.880Z,99307.06
2022-10-31T15:03:13.526Z,99306.73
2022-10-31T15:06:22.146Z,99307.41
2022-10-31T15:09:31.056Z,99309.40
2022-10-31T15:12:39.510Z,99311.94
2022-10-31T15:15:49.734Z,99310.30
2022-10-31T15:19:00.723Z,99312.13
2022-10-31T15:22:07.002Z,99311.59
2022-10-31T15:25:21.989Z,99310.65
2022-10-31T15:28:29.255Z,99308.81
2022-10-31T15:31:35.907Z,99313.06
2022-10-31T15:34:43.967Z,99316.09
2022-10-31T15:37:50.166Z,99316.98
2022-10-31T15:41:00.286Z,99317.88
2022-10-31T15:44:14.924Z,99316.15
2022-10-31T15:47:22.974Z,99319.04
2022-10-31T15:50:34.768Z,99319.73
2022-10-31T15:53:49.206Z,99323.38
2022-10-31T15:56:55.553Z,99324.10
2022-10-31T16:00:02.335Z,99323.96
2022-10-31T16:03:20.585Z,99330.45
2022-10-31T16:06:26.849Z,99334.80
2022-10-31T16:09:33.316Z,99336.52
2022-10-31T16:12:46.674Z,99338.30
2022-10-31T16:16:21.237Z,99338.73
2022-10-31T16:19:25.455Z,99342.11
2022-10-31T16:22:33.998Z,99345.46
2022-10-31T16:25:41.513Z,99348.14
2022-10-31T16:29:03.339Z,99348.29
2022-10-31T16:32:28.340Z,99349.13
2022-10-31T16:35:38.419Z,99347.11
2022-10-31T16:38:44.538Z,99348.98
2022-10-31T16:41:51.477Z,99352.50
2022-10-31T16:44:57.627Z,99349.45
2022-10-31T16:48:08.343Z,99346.98
2022-10-31T16:51:14.490Z,99349.70
2022-10-31T16:54:21.229Z,99349.66
2022-10-31T16:57:32.014Z,99351.21
2022-10-31T17:00:38.395Z,99350.27
2022-10-31T17:03:44.446Z,99352.02
2022-10-31T17:06:48.963Z,99353.83
2022-10-31T17:09:55.112Z,99357.17
2022-10-31T17:13:00.208Z,99354.45
2022-10-31T17:16:07.453Z,99351.77
2022-10-31T17:19:15.402Z,99351.95
2022-10-31T17:22:21.491Z,99352.73
2022-10-31T17:25:26.989Z,99353.41
2022-10-31T17:28:33.033Z,99356.40
2022-10-31T17:31:39.909Z,99356.67
2022-10-31T17:34:46.089Z,99354.97
2022-10-31T17:37:50.929Z,99360.03
2022-10-31T17:40:57.135Z,99361.98
2022-10-31T17:44:03.600Z,99363.30
2022-10-31T17:47:09.801Z,99358.83
2022-10-31T17:50:16.166Z,99357.77
2022-10-31T17:53:22.744Z,99355.64
2022-10-31T17:56:29.419Z,99355.62
2022-10-31T17:59:35.497Z,99357.29
2022-10-31T18:02:40.104Z,99354.54
2022-10-31T18:05:54.618Z,99355.33
2022-10-31T18:09:03.523Z,99349.80
2022-10-31T18:12:09.922Z,99349.77
2022-10-31T18:15:16.301Z,99350.91
2022-10-31T18:18:23.141Z,99352.60
2022-10-31T18:21:29.483Z,99354.32
2022-10-31T18:24:35.618Z,99356.47
2022-10-31T18:27:40.085Z,99358.77
2022-10-31T18:30:46.296Z,99359.77
2022-10-31T18:33:53.554Z,99356.48
2022-10-31T18:36:59.733Z,99354.00
2022-10-31T18:40:04.687Z,99352.06
2022-10-31T18:43:11.044Z,99353.59
2022-10-31T18:46:18.695Z,99353.19
2022-10-31T18:49:26.029Z,99350.41
2022-10-31T18:52:32.890Z,99350.92
2022-10-31T18:55:45.481Z,99347.81
2022-10-31T18:58:56.255Z,99348.42
2022-10-31T19:02:02.994Z,99347.73
2022-10-31T19:05:10.220Z,99346.16
2022-10-31T19:08:16.499Z,99345.98
2022-10-31T19:11:23.140Z,99343.59
2022-10-31T19:14:29.225Z,99341.07
2022-10-31T19:17:35.403Z,99337.77
2022-10-31T19:20:40.444Z,99333.44
2022-10-31T19:23:47.451Z,99329.98
2022-10-31T19:26:53.655Z,99329.05
2022-10-31T19:29:58.360Z,99334.44
2022-10-31T19:33:04.585Z,99333.27
2022-10-31T19:36:10.454Z,99334.07
2022-10-31T19:39:15.198Z,99332.02
2022-10-31T19:42:21.778Z,99330.63
2022-10-31T19:45:27.892Z,99330.86
2022-10-31T19:48:36.791Z,99330.26
2022-10-31T19:51:42.945Z,99330.25
2022-10-31T19:54:47.406Z,99328.52
2022-10-31T19:58:01.820Z,99324.50
2022-10-31T20:01:12.382Z,99321.95
2022-10-31T20:04:18.812Z,99321.92
2022-10-31T20:07:25.134Z,99319.10
2022-10-31T20:10:31.337Z,99321.75
2022-10-31T20:13:35.764Z,99327.28
2022-10-31T20:16:42.450Z,99329.58
2022-10-31T20:19:48.743Z,99330.16
2022-10-31T20:22:55.034Z,99329.39
2022-10-31T20:25:59.593Z,99328.35
2022-10-31T20:29:06.526Z,99323.86
2022-10-31T20:32:12.625Z,99325.91
2022-10-31T20:35:19.180Z,99332.41
2022-10-31T20:38:25.442Z,99333.84
2022-10-31T20:41:29.919Z,99331.10
2022-10-31T20:44:36.235Z,99324.35
2022-10-31T20:47:42.646Z,99322.67
2022-10-31T20:50:48.873Z,99320.25
2022-10-31T20:53:53.965Z,99315.02
2022-10-31T20:57:00.177Z,99315.48
2022-10-31T21:00:05.483Z,99313.58
2022-10-31T21:03:11.565Z,99312.34
2022-10-31T21:06:19.032Z,99312.40
2022-10-31T21:09:25.126Z,99311.19
2022-10-31T21:12:31.196Z,99307.27
2022-10-31T21:15:37.438Z,99308.56
2022-10-31T21:18:42.960Z,99304.09
2022-10-31T21:21:49.136Z,99304.59
2022-10-31T21:24:55.206Z,99298.52
2022-10-31T21:28:01.863Z,99296.16
2022-10-31T21:31:11.919Z,99295.16
2022-10-31T21:34:18.282Z,99295.40
2022-10-31T21:37:24.377Z,99295.03
2022-10-31T21:40:30.806Z,99295.44
2022-10-31T21:43:39.120Z,99290.11
2022-10-31T21:46:47.535Z,99287.60
2022-10-31T21:49:53.634Z,99288.80
2022-10-31T21:53:20.854Z,99284.98
2022-10-31T21:56:27.020Z,99281.03
2022-10-31T21:59:31.752Z,99278.95
2022-10-31T22:02:38.286Z,99273.90
2022-10-31T22:05:44.327Z,99271.00
2022-10-31T22:08:51.026Z,99267.92
2022-10-31T22:11:57.425Z,99267.05
2022-10-31T22:15:03.676Z,99269.17
2022-10-31T22:18:08.250Z,99263.91
2022-10-31T22:21:16.958Z,99260.23
2022-10-31T22:24:23.294Z,99254.10
2022-10-31T22:27:29.548Z,99251.59
2022-10-31T22:30:38.444Z,99254.30
2022-10-31T22:33:44.690Z,99252.59
2022-10-31T22:36:49.300Z,99250.44
2022-10-31T22:39:55.875Z,99248.56
2022-10-31T22:43:02.370Z,99248.41
2022-10-31T22:46:11.714Z,99248.13
2022-10-31T22:49:17.937Z,99244.07
2022-10-31T22:52:24.113Z,99237.23
2022-10-31T22:55:30.380Z,99236.77
2022-10-31T22:58:35.549Z,99237.39
2022-10-31T23:01:41.913Z,99236.45
2022-10-31T23:04:48.151Z,99230.52
2022-10-31T23:07:54.701Z,99226.86
2022-10-31T23:11:00.742Z,99223.80
2022-10-31T23:14:12.127Z,99218.95
2022-10-31T23:17:18.840Z,99210.48
2022-10-31T23:20:25.122Z,99209.29
2022-10-31T23:23:29.748Z,99208.13
2022-10-31T23:26:53.317Z,99204.46
2022-10-31T23:30:01.473Z,99205.43
2022-10-31T23:33:07.705Z,99205.58
2022-10-31T23:36:14.296Z,99202.30
2022-10-31T23:39:24.148Z,99201.67
2022-10-31T23:42:31.685Z,99201.89
2022-10-31T23:45:37.854Z,99199.96
2022-10-31T23:48:48.143Z,99194.05
2022-10-31T23:51:56.682Z,99193.14
2022-10-31T23:55:02.915Z,99187.55
2022-10-31T23:58:08.990Z,99185.47
